Time;durP1;ratioP1;P1;durP2;ratioP2;P2;SDS_P1;SDS_P2;PMS_P1;PMS_P2;Temp;Humidity;BMP_temperature;BMP_pressure;BME280_temperature;BME280_humidity;BME280_pressure;Samples;Min_cycle;Max_cycle;Signal;HPM_P1;HPM_P2
2023/12/12 00:00:29;;;;;;;1.58;0.40;;;7.90;99.90;;;;;;5095517;28;20035;-63
2023/12/12 00:02:58;;;;;;;3.47;0.68;;;7.90;99.90;;;;;;5095000;28;20393;-63
2023/12/12 00:05:23;;;;;;;4.30;0.50;;;7.90;99.90;;;;;;5094112;28;20431;-63
2023/12/12 00:07:49;;;;;;;2.80;0.50;;;7.80;99.90;;;;;;5095181;28;20028;-63
2023/12/12 00:10:15;;;;;;;2.33;0.43;;;7.90;99.90;;;;;;5094720;28;20024;-63
2023/12/12 00:12:41;;;;;;;2.28;0.60;;;7.90;99.90;;;;;;5095110;28;20028;-63
2023/12/12 00:15:07;;;;;;;1.90;0.70;;;7.90;99.90;;;;;;5094339;28;20164;-64
2023/12/12 00:17:33;;;;;;;3.72;0.80;;;7.90;99.90;;;;;;5095387;28;20028;-64
2023/12/12 00:19:58;;;;;;;4.47;0.65;;;7.80;99.90;;;;;;5095246;28;20024;-64
2023/12/12 00:22:24;;;;;;;3.15;0.47;;;7.80;99.90;;;;;;5093625;28;20058;-63
2023/12/12 00:24:50;;;;;;;5.43;0.80;;;7.80;99.90;;;;;;5093476;28;20472;-63
2023/12/12 00:27:15;;;;;;;4.03;0.65;;;7.80;99.90;;;;;;5094824;28;20055;-64
2023/12/12 00:29:41;;;;;;;5.93;0.82;;;7.70;99.90;;;;;;5094807;28;20085;-63
2023/12/12 00:32:07;;;;;;;4.18;0.65;;;7.80;99.90;;;;;;5093517;28;20034;-63
2023/12/12 00:34:39;;;;;;;3.63;0.60;;;7.80;99.90;;;;;;5093613;28;20514;-63
2023/12/12 00:37:05;;;;;;;3.38;0.55;;;7.80;99.90;;;;;;5093570;28;20485;-63
2023/12/12 00:39:35;;;;;;;6.78;1.13;;;7.80;99.90;;;;;;5094642;28;20061;-63
2023/12/12 00:42:01;;;;;;;5.03;1.58;;;7.80;99.90;;;;;;5093750;28;20039;-63
2023/12/12 00:44:27;;;;;;;4.20;0.45;;;7.80;99.90;;;;;;5094513;28;20377;-63
2023/12/12 00:46:52;;;;;;;5.70;0.77;;;7.80;99.90;;;;;;5093285;28;20452;-64
2023/12/12 00:49:18;;;;;;;7.10;0.95;;;7.80;99.90;;;;;;5093288;28;20056;-63
2023/12/12 00:51:44;;;;;;;4.18;0.90;;;7.80;99.90;;;;;;5094505;28;20028;-63
2023/12/12 00:54:09;;;;;;;4.32;0.50;;;7.80;99.90;;;;;;5094751;28;20099;-69
2023/12/12 00:56:35;;;;;;;2.28;0.73;;;7.80;99.90;;;;;;5096109;28;20435;-64
2023/12/12 00:59:00;;;;;;;5.32;0.98;;;7.80;99.90;;;;;;5095810;28;20028;-64
2023/12/12 01:01:26;;;;;;;8.65;1.80;;;7.80;99.90;;;;;;5093146;28;20024;-63
2023/12/12 01:03:52;;;;;;;3.33;0.57;;;7.80;99.90;;;;;;5094468;28;20024;-64
2023/12/12 01:06:24;;;;;;;9.13;2.58;;;7.90;99.90;;;;;;5096383;28;20040;-63
2023/12/12 01:08:51;;;;;;;8.80;0.82;;;8.00;99.90;;;;;;5096771;28;20052;-65
2023/12/12 01:11:17;;;;;;;7.43;0.82;;;8.10;99.90;;;;;;5095486;28;20110;-64
2023/12/12 01:13:43;;;;;;;5.70;1.17;;;8.10;99.90;;;;;;5094439;28;20107;-68
2023/12/12 01:16:09;;;;;;;6.85;0.73;;;8.10;99.90;;;;;;5092901;28;20051;-64
2023/12/12 01:18:35;;;;;;;3.38;0.85;;;8.10;99.90;;;;;;5094281;28;20449;-64
2023/12/12 01:21:02;;;;;;;6.45;0.70;;;8.10;99.90;;;;;;5094109;28;20024;-63
2023/12/12 01:23:46;;;;;;;3.90;0.55;;;8.00;99.90;;;;;;5092769;28;20055;-63
2023/12/12 01:26:11;;;;;;;3.35;0.60;;;8.00;99.90;;;;;;5092698;28;20066;-63
2023/12/12 01:28:37;;;;;;;7.47;0.70;;;7.90;99.90;;;;;;5093744;28;20461;-63
2023/12/12 01:31:02;;;;;;;3.80;0.40;;;7.80;99.90;;;;;;5094188;28;20099;-64
2023/12/12 01:33:28;;;;;;;2.17;0.30;;;7.80;99.90;;;;;;5093935;28;20024;-64
2023/12/12 01:35:54;;;;;;;3.70;0.90;;;7.80;99.90;;;;;;5093740;28;20393;-64
2023/12/12 01:38:19;;;;;;;5.93;0.52;;;7.70;99.90;;;;;;5092758;28;20024;-64
2023/12/12 01:40:47;;;;;;;7.18;0.68;;;7.60;99.90;;;;;;5093893;28;20049;-64
2023/12/12 01:43:22;;;;;;;2.97;0.38;;;7.60;99.90;;;;;;5093866;28;20020;-63
2023/12/12 01:45:47;;;;;;;4.95;0.60;;;7.60;99.90;;;;;;5092433;28;20032;-63
2023/12/12 01:48:13;;;;;;;3.67;0.50;;;7.50;99.90;;;;;;5095592;28;20034;-63
2023/12/12 01:50:39;;;;;;;7.43;0.70;;;7.50;99.90;;;;;;5097832;28;20479;-63
2023/12/12 01:53:05;;;;;;;8.57;1.45;;;7.50;99.90;;;;;;5097821;28;20472;-63
2023/12/12 01:55:31;;;;;;;4.20;0.40;;;7.40;99.90;;;;;;5096451;28;20047;-63
2023/12/12 01:57:57;;;;;;;1.77;0.63;;;7.40;99.90;;;;;;5097702;28;20415;-63
2023/12/12 02:00:23;;;;;;;5.15;0.73;;;7.40;99.90;;;;;;5097838;28;20024;-64
2023/12/12 02:02:49;;;;;;;6.65;0.50;;;7.30;99.90;;;;;;5096304;28;20107;-63
2023/12/12 02:05:15;;;;;;;4.40;0.55;;;7.20;99.90;;;;;;5096194;28;20035;-63
2023/12/12 02:07:41;;;;;;;3.17;0.43;;;7.00;99.90;;;;;;5097257;28;20052;-63
2023/12/12 02:10:07;;;;;;;5.47;0.45;;;6.90;99.90;;;;;;5096149;28;20461;-63
2023/12/12 02:12:32;;;;;;;5.45;0.80;;;6.80;99.90;;;;;;5096477;28;20031;-63
2023/12/12 02:14:59;;;;;;;3.67;0.57;;;6.70;99.90;;;;;;5097321;28;20025;-63
2023/12/12 02:17:24;;;;;;;5.72;1.00;;;6.60;99.90;;;;;;5096039;28;20488;-63
2023/12/12 02:19:50;;;;;;;3.53;0.50;;;6.60;99.90;;;;;;5097251;28;20032;-63
2023/12/12 02:22:16;;;;;;;3.92;0.68;;;6.90;99.90;;;;;;5097213;28;20024;-64
2023/12/12 02:24:41;;;;;;;4.75;0.50;;;7.10;99.90;;;;;;5095941;28;20048;-63
2023/12/12 02:27:07;;;;;;;3.53;0.60;;;7.10;99.90;;;;;;5095832;28;20066;-63
2023/12/12 02:29:34;;;;;;;6.75;0.75;;;7.10;99.90;;;;;;5096830;28;20119;-63
2023/12/12 02:31:59;;;;;;;3.38;0.60;;;7.00;99.90;;;;;;5097089;28;20024;-63
2023/12/12 02:34:25;;;;;;;3.05;0.50;;;6.90;99.90;;;;;;5097025;28;20483;-63
2023/12/12 02:36:51;;;;;;;7.07;1.25;;;6.90;99.90;;;;;;5097017;28;20103;-63
2023/12/12 02:39:16;;;;;;;2.17;0.43;;;6.90;99.90;;;;;;5096588;28;20026;-63
2023/12/12 02:41:42;;;;;;;8.25;0.90;;;6.90;99.90;;;;;;5095566;28;20376;-63
2023/12/12 02:44:08;;;;;;;2.80;0.70;;;7.00;99.90;;;;;;5096839;28;20028;-63
2023/12/12 02:46:33;;;;;;;6.85;0.75;;;6.90;99.90;;;;;;5095529;28;20032;-63
2023/12/12 02:48:59;;;;;;;6.78;1.23;;;6.80;99.90;;;;;;5095435;28;20028;-63
2023/12/12 02:51:24;;;;;;;5.38;0.38;;;6.70;99.90;;;;;;5095427;28;20090;-63
2023/12/12 02:53:50;;;;;;;2.72;0.60;;;6.80;99.90;;;;;;5096923;28;20449;-64
2023/12/12 02:56:16;;;;;;;4.28;0.65;;;6.70;99.90;;;;;;5096576;28;20571;-63
2023/12/12 02:58:41;;;;;;;4.95;0.80;;;6.90;99.90;;;;;;5094725;28;20024;-63
2023/12/12 03:01:11;;;;;;;5.70;1.05;;;6.90;99.90;;;;;;5096197;28;20027;-63
2023/12/12 03:03:39;;;;;;;3.80;0.63;;;7.10;99.90;;;;;;5096124;28;20024;-63
2023/12/12 03:06:05;;;;;;;1.17;0.32;;;7.20;99.90;;;;;;5096307;28;20081;-63
2023/12/12 03:08:30;;;;;;;6.32;0.85;;;7.30;99.90;;;;;;5095058;28;20028;-63
2023/12/12 03:10:56;;;;;;;4.78;0.77;;;7.30;99.90;;;;;;5095042;28;20389;-63
2023/12/12 03:13:22;;;;;;;8.00;1.13;;;7.40;99.90;;;;;;5096257;28;20033;-63
2023/12/12 03:15:47;;;;;;;2.53;0.30;;;7.50;99.90;;;;;;5096198;28;20020;-63
2023/12/12 03:18:13;;;;;;;4.00;0.47;;;7.50;99.90;;;;;;5094878;28;20024;-63
2023/12/12 03:20:39;;;;;;;6.38;0.55;;;7.60;99.90;;;;;;5096145;28;20093;-63
2023/12/12 03:23:04;;;;;;;7.70;0.82;;;7.70;99.90;;;;;;5096336;28;20027;-63
2023/12/12 03:25:30;;;;;;;6.20;0.65;;;7.70;99.90;;;;;;5094434;28;20043;-63
2023/12/12 03:27:55;;;;;;;5.45;1.20;;;7.70;99.90;;;;;;5096198;28;20028;-63
2023/12/12 03:30:21;;;;;;;1.23;0.50;;;7.70;99.90;;;;;;5094713;28;20024;-63
2023/12/12 03:32:47;;;;;;;3.17;0.90;;;7.80;99.90;;;;;;5095880;28;20028;-63
2023/12/12 03:35:12;;;;;;;7.07;1.00;;;7.80;99.90;;;;;;5096251;28;20036;-64
2023/12/12 03:37:38;;;;;;;4.63;0.98;;;7.70;99.90;;;;;;5095498;28;20024;-63
2023/12/12 03:40:04;;;;;;;4.43;0.85;;;7.70;99.90;;;;;;5094600;28;20020;-64
2023/12/12 03:42:30;;;;;;;3.60;0.50;;;7.70;99.90;;;;;;5095717;28;20028;-63
2023/12/12 03:44:56;;;;;;;2.72;0.52;;;7.70;99.90;;;;;;5094289;28;20039;-63
2023/12/12 03:47:22;;;;;;;3.83;0.85;;;7.60;99.90;;;;;;5095656;28;20377;-63
2023/12/12 03:49:47;;;;;;;5.63;1.00;;;7.50;99.90;;;;;;5094277;28;20024;-63
2023/12/12 03:52:13;;;;;;;4.47;0.73;;;7.40;99.90;;;;;;5095444;28;20032;-63
2023/12/12 03:54:38;;;;;;;4.25;0.80;;;7.30;99.90;;;;;;5094202;28;20026;-63
2023/12/12 03:57:04;;;;;;;3.65;0.60;;;7.20;99.90;;;;;;5095419;28;20099;-63
2023/12/12 03:59:30;;;;;;;8.23;1.30;;;7.10;99.90;;;;;;5095442;28;20028;-63
2023/12/12 04:01:55;;;;;;;5.55;0.73;;;7.00;99.90;;;;;;5095047;28;20051;-64
2023/12/12 04:04:21;;;;;;;5.35;1.63;;;6.90;99.90;;;;;;5095606;28;20039;-63
2023/12/12 04:06:47;;;;;;;2.67;0.60;;;6.90;99.90;;;;;;5095133;28;20061;-63
2023/12/12 04:09:13;;;;;;;2.63;0.80;;;7.00;99.90;;;;;;5094174;28;20020;-63
2023/12/12 04:11:38;;;;;;;8.60;0.93;;;7.10;99.90;;;;;;5094040;28;20024;-63
2023/12/12 04:14:04;;;;;;;4.40;0.95;;;7.10;99.90;;;;;;5093820;28;20114;-63
2023/12/12 04:16:30;;;;;;;4.22;0.63;;;7.10;99.90;;;;;;5095006;28;20524;-63
2023/12/12 04:18:55;;;;;;;5.43;0.70;;;7.10;99.90;;;;;;5095021;28;20031;-64
2023/12/12 04:21:21;;;;;;;4.60;0.77;;;7.20;99.90;;;;;;5094956;28;20103;-63
2023/12/12 04:23:47;;;;;;;3.10;0.65;;;7.40;99.90;;;;;;5094957;28;20103;-64
2023/12/12 04:26:12;;;;;;;2.92;0.60;;;7.60;99.90;;;;;;5096192;28;20114;-64
2023/12/12 04:28:38;;;;;;;5.45;0.63;;;7.60;99.90;;;;;;5094301;28;20027;-64
2023/12/12 04:31:04;;;;;;;4.82;0.77;;;7.50;99.90;;;;;;5093817;28;20051;-63
2023/12/12 04:33:30;;;;;;;5.65;1.15;;;7.60;99.90;;;;;;5093423;28;20381;-63
2023/12/12 04:35:56;;;;;;;11.07;1.10;;;7.60;99.90;;;;;;5093490;28;20039;-63
2023/12/12 04:38:21;;;;;;;3.55;0.80;;;7.60;99.90;;;;;;5094362;28;20024;-63
2023/12/12 04:40:47;;;;;;;3.33;0.73;;;7.60;99.90;;;;;;5093008;28;20031;-63
2023/12/12 04:43:13;;;;;;;7.85;1.35;;;7.60;99.90;;;;;;5094586;28;20024;-63
2023/12/12 04:45:38;;;;;;;6.13;1.20;;;7.60;99.90;;;;;;5094209;28;20034;-63
2023/12/12 04:48:05;;;;;;;5.68;1.20;;;7.70;99.90;;;;;;5094612;28;20032;-63
2023/12/12 04:50:31;;;;;;;5.55;0.80;;;7.60;99.90;;;;;;5094465;28;20069;-63
2023/12/12 04:52:56;;;;;;;6.10;1.17;;;7.50;99.90;;;;;;5094585;28;20028;-63
2023/12/12 04:55:22;;;;;;;5.93;0.88;;;7.60;99.90;;;;;;5094673;28;20115;-63
2023/12/12 04:57:47;;;;;;;6.82;0.85;;;7.60;99.90;;;;;;5094392;28;20051;-63
2023/12/12 05:00:14;;;;;;;4.63;1.05;;;7.60;99.90;;;;;;5094015;28;20064;-63
2023/12/12 05:02:41;;;;;;;6.38;1.20;;;7.60;99.90;;;;;;5094300;28;20028;-63
2023/12/12 05:05:08;;;;;;;3.05;1.00;;;7.50;99.90;;;;;;5094045;28;20035;-63
2023/12/12 05:07:34;;;;;;;4.03;1.00;;;7.50;99.90;;;;;;5092900;28;20024;-63
2023/12/12 05:09:59;;;;;;;4.40;0.88;;;7.30;99.90;;;;;;5094156;28;20465;-63
2023/12/12 05:12:25;;;;;;;8.50;1.80;;;7.20;99.90;;;;;;5092803;28;20039;-63
2023/12/12 05:14:51;;;;;;;6.18;0.93;;;7.10;99.90;;;;;;5094170;28;20035;-63
2023/12/12 05:17:17;;;;;;;2.80;0.60;;;7.00;99.90;;;;;;5094104;28;20024;-63
2023/12/12 05:19:42;;;;;;;5.82;1.00;;;7.00;99.90;;;;;;5092786;28;20032;-62
2023/12/12 05:22:08;;;;;;;6.75;1.30;;;7.00;99.90;;;;;;5093343;28;20148;-63
2023/12/12 05:24:34;;;;;;;6.13;0.88;;;6.90;99.90;;;;;;5093844;28;20135;-61
2023/12/12 05:27:00;;;;;;;3.42;0.77;;;7.00;99.90;;;;;;5092867;28;20063;-63
2023/12/12 05:29:25;;;;;;;4.85;1.15;;;6.90;99.90;;;;;;5092703;28;20060;-62
2023/12/12 05:31:51;;;;;;;3.30;0.90;;;6.80;99.90;;;;;;5093988;28;20024;-63
2023/12/12 05:34:17;;;;;;;6.35;1.00;;;6.60;99.90;;;;;;5093886;28;20454;-63
2023/12/12 05:36:42;;;;;;;3.22;0.88;;;6.30;99.90;;;;;;5092532;28;20028;-63
2023/12/12 05:39:09;;;;;;;6.43;1.20;;;6.10;99.90;;;;;;5092460;28;20031;-63
2023/12/12 05:41:36;;;;;;;5.75;0.95;;;5.90;99.90;;;;;;5093799;28;20027;-64
2023/12/12 05:44:02;;;;;;;4.75;1.35;;;5.70;99.90;;;;;;5093853;28;20081;-63
2023/12/12 05:46:27;;;;;;;7.05;1.30;;;5.50;99.90;;;;;;5093333;28;20036;-63
2023/12/12 05:48:53;;;;;;;4.38;1.23;;;5.50;99.90;;;;;;5092429;28;20024;-63
2023/12/12 05:51:19;;;;;;;3.15;0.82;;;5.30;99.90;;;;;;5093532;28;20028;-66
2023/12/12 05:53:44;;;;;;;5.70;1.05;;;5.30;99.90;;;;;;5093800;28;20036;-63
2023/12/12 05:56:13;;;;;;;14.98;2.20;;;5.30;99.90;;;;;;5093645;28;20031;-63
2023/12/12 05:58:39;;;;;;;11.10;1.25;;;5.20;99.90;;;;;;5092469;28;20178;-63
2023/12/12 06:01:05;;;;;;;7.35;1.25;;;5.10;99.90;;;;;;5092281;28;20512;-63
2023/12/12 06:03:31;;;;;;;8.48;1.40;;;4.90;99.90;;;;;;5092277;28;20024;-63
2023/12/12 06:05:57;;;;;;;7.20;1.75;;;4.80;99.90;;;;;;5092289;28;20119;-63
2023/12/12 06:08:23;;;;;;;11.35;1.85;;;4.70;99.90;;;;;;5093733;28;20024;-64
2023/12/12 06:10:48;;;;;;;8.15;2.17;;;4.70;99.90;;;;;;5093536;28;20035;-63
2023/12/12 06:13:15;;;;;;;6.20;1.35;;;4.60;99.90;;;;;;5092510;28;20031;-64
2023/12/12 06:15:41;;;;;;;6.68;1.70;;;4.60;99.90;;;;;;5093657;28;20380;-63
2023/12/12 06:18:07;;;;;;;5.70;1.63;;;4.60;99.90;;;;;;5093169;28;20039;-63
2023/12/12 06:20:33;;;;;;;7.13;1.70;;;4.50;99.90;;;;;;5093661;28;20027;-63
2023/12/12 06:22:59;;;;;;;7.90;1.90;;;4.50;99.90;;;;;;5092163;28;20029;-64
2023/12/12 06:25:24;;;;;;;8.23;1.95;;;4.50;99.90;;;;;;5092102;28;20048;-63
2023/12/12 06:27:50;;;;;;;8.25;2.20;;;4.50;99.90;;;;;;5093163;28;20380;-63
2023/12/12 06:30:16;;;;;;;9.02;3.20;;;4.50;99.90;;;;;;5092163;28;20029;-64
2023/12/12 06:32:42;;;;;;;12.20;2.92;;;4.40;99.90;;;;;;5092274;28;20024;-63
2023/12/12 06:35:08;;;;;;;14.85;3.03;;;4.40;99.90;;;;;;5095770;28;20415;-63
2023/12/12 06:37:33;;;;;;;12.40;3.85;;;4.40;99.90;;;;;;5097040;28;20433;-63
2023/12/12 06:40:00;;;;;;;9.48;2.95;;;4.50;99.90;;;;;;5096956;28;20028;-64
2023/12/12 06:42:25;;;;;;;6.03;2.92;;;4.50;99.90;;;;;;5096901;28;20028;-63
2023/12/12 06:44:51;;;;;;;8.65;2.08;;;4.60;99.90;;;;;;5095520;28;20031;-63
2023/12/12 06:47:17;;;;;;;14.73;3.88;;;4.70;99.90;;;;;;5095557;28;20027;-63
2023/12/12 06:49:42;;;;;;;9.60;2.88;;;4.70;99.90;;;;;;5096780;28;20024;-64
2023/12/12 06:52:08;;;;;;;10.02;3.00;;;4.70;99.90;;;;;;5096640;28;20028;-64
2023/12/12 06:54:33;;;;;;;15.15;3.42;;;4.70;99.90;;;;;;5095403;28;20530;-63
2023/12/12 06:56:59;;;;;;;7.20;2.35;;;4.70;99.90;;;;;;5096571;28;20074;-63
2023/12/12 06:59:25;;;;;;;8.40;3.80;;;4.70;99.90;;;;;;5096523;28;20074;-64
2023/12/12 07:01:51;;;;;;;11.32;2.70;;;4.70;99.90;;;;;;5096607;28;20039;-63
2023/12/12 07:04:16;;;;;;;9.60;2.90;;;4.70;99.90;;;;;;5096820;28;20020;-63
2023/12/12 07:06:42;;;;;;;10.07;3.50;;;4.80;99.90;;;;;;5096355;28;20032;-63
2023/12/12 07:09:12;;;;;;;4.93;2.33;;;4.80;99.90;;;;;;5096588;28;20027;-63
2023/12/12 07:11:37;;;;;;;14.60;3.00;;;4.80;99.90;;;;;;5094938;28;20411;-63
2023/12/12 07:14:03;;;;;;;9.82;2.70;;;4.80;99.90;;;;;;5094725;28;20170;-63
2023/12/12 07:16:29;;;;;;;10.25;3.03;;;4.80;99.90;;;;;;5095956;28;20028;-64
2023/12/12 07:18:55;;;;;;;6.07;2.30;;;4.80;99.90;;;;;;5096614;28;20020;-63
2023/12/12 07:21:21;;;;;;;6.50;2.55;;;4.80;99.90;;;;;;5096102;28;20389;-63
2023/12/12 07:23:51;;;;;;;9.98;2.80;;;4.80;99.90;;;;;;5095932;28;20027;-63
2023/12/12 07:26:17;;;;;;;;;;;4.80;99.90;;;;;;5097008;28;20036;-63
2023/12/12 07:28:42;;;;;;;11.35;2.88;;;4.90;99.90;;;;;;5095699;28;20395;-63
2023/12/12 07:31:10;;;;;;;16.15;3.60;;;4.90;99.90;;;;;;5095928;28;20024;-64
2023/12/12 07:33:36;;;;;;;10.32;2.85;;;4.90;99.90;;;;;;5095918;28;20093;-63
2023/12/12 07:36:02;;;;;;;6.35;2.55;;;4.90;99.90;;;;;;5095902;28;20032;-63
2023/12/12 07:38:27;;;;;;;5.85;2.63;;;4.90;99.90;;;;;;5094907;28;20081;-64
2023/12/12 07:40:53;;;;;;;13.18;2.67;;;4.90;99.90;;;;;;5094584;28;20520;-64
2023/12/12 07:43:19;;;;;;;11.00;4.05;;;5.00;99.90;;;;;;5095253;28;20024;-64
2023/12/12 07:45:45;;;;;;;8.80;2.80;;;5.00;99.90;;;;;;5094248;28;20123;-66
2023/12/12 07:48:10;;;;;;;9.85;2.92;;;5.00;99.90;;;;;;5096165;28;20032;-63
2023/12/12 07:50:36;;;;;;;12.00;2.90;;;5.10;99.90;;;;;;5094146;28;20020;-63
2023/12/12 07:53:04;;;;;;;9.32;2.70;;;5.10;99.90;;;;;;5096123;28;20028;-63
2023/12/12 07:55:31;;;;;;;13.45;2.80;;;5.10;99.90;;;;;;5094623;28;20024;-64
2023/12/12 07:57:57;;;;;;;8.70;2.80;;;5.10;99.90;;;;;;5095555;28;20032;-64
2023/12/12 08:00:22;;;;;;;8.68;3.20;;;5.20;99.90;;;;;;5095830;28;20476;-63
2023/12/12 08:02:48;;;;;;;17.48;5.03;;;5.20;99.90;;;;;;5095407;28;20028;-63
2023/12/12 08:05:14;;;;;;;9.85;2.70;;;5.30;99.90;;;;;;5093820;28;20043;-66
2023/12/12 08:07:39;;;;;;;13.90;3.72;;;5.30;99.90;;;;;;5095344;28;20024;-63
2023/12/12 08:10:06;;;;;;;10.88;3.13;;;5.30;99.90;;;;;;5095606;28;20404;-63
2023/12/12 08:12:31;;;;;;;16.30;3.75;;;5.40;99.90;;;;;;5095231;28;20031;-63
2023/12/12 08:14:57;;;;;;;15.68;4.53;;;5.40;99.90;;;;;;5094875;28;20029;-63
2023/12/12 08:17:23;;;;;;;16.33;3.08;;;5.50;99.90;;;;;;5094763;28;20063;-63
2023/12/12 08:19:48;;;;;;;13.48;3.53;;;5.50;99.90;;;;;;5095029;28;20030;-63
2023/12/12 08:22:14;;;;;;;12.05;3.63;;;5.50;99.90;;;;;;5094877;28;20067;-63
2023/12/12 08:24:40;;;;;;;17.95;3.20;;;5.60;99.90;;;;;;5095444;28;20151;-63
2023/12/12 08:27:07;;;;;;;12.77;3.72;;;5.60;99.90;;;;;;5093494;28;20043;-63
2023/12/12 08:29:33;;;;;;;12.95;3.70;;;5.60;99.90;;;;;;5094996;28;20128;-63
2023/12/12 08:31:58;;;;;;;11.55;3.47;;;5.70;99.90;;;;;;5093721;28;20024;-63
2023/12/12 08:34:24;;;;;;;15.48;4.13;;;5.80;99.90;;;;;;5093931;28;20484;-65
2023/12/12 08:36:50;;;;;;;10.82;3.53;;;5.90;99.90;;;;;;5093610;28;20123;-63
2023/12/12 08:39:15;;;;;;;7.03;2.42;;;6.00;99.90;;;;;;5094859;28;20073;-64
2023/12/12 08:41:41;;;;;;;8.68;2.92;;;6.10;99.90;;;;;;5094789;28;20027;-63
2023/12/12 08:44:07;;;;;;;7.38;2.72;;;6.30;99.90;;;;;;5095092;28;20027;-63
2023/12/12 08:46:33;;;;;;;7.07;2.20;;;6.40;99.90;;;;;;5094528;28;20024;-63
2023/12/12 08:48:59;;;;;;;6.22;2.47;;;6.40;99.90;;;;;;5093256;28;20039;-63
2023/12/12 08:51:30;;;;;;;8.50;2.63;;;6.50;99.90;;;;;;5094186;28;20374;-64
2023/12/12 08:53:56;;;;;;;10.52;3.45;;;6.50;99.90;;;;;;5093402;28;20365;-64
2023/12/12 08:56:21;;;;;;;8.52;2.00;;;6.60;99.90;;;;;;5094227;28;20042;-63
2023/12/12 08:58:51;;;;;;;8.60;2.83;;;6.70;99.90;;;;;;5093503;28;20027;-63
2023/12/12 09:01:17;;;;;;;6.75;2.20;;;6.80;99.90;;;;;;5093136;28;20362;-64
2023/12/12 09:03:43;;;;;;;8.88;2.28;;;6.90;99.90;;;;;;5094242;28;20077;-63
2023/12/12 09:06:08;;;;;;;10.20;2.75;;;6.90;99.90;;;;;;5094403;28;20458;-64
2023/12/12 09:08:34;;;;;;;10.55;2.15;;;7.00;99.90;;;;;;5094405;28;20073;-64
2023/12/12 09:11:00;;;;;;;13.32;2.08;;;7.10;99.90;;;;;;5092822;28;20020;-63
2023/12/12 09:13:27;;;;;;;6.57;1.85;;;7.20;99.90;;;;;;5093800;28;20532;-63
2023/12/12 09:15:54;;;;;;;8.00;2.25;;;7.30;99.90;;;;;;5094068;28;20450;-63
2023/12/12 09:18:19;;;;;;;8.55;2.33;;;7.40;99.90;;;;;;5094025;28;20052;-63
2023/12/12 09:20:46;;;;;;;7.28;1.60;;;7.50;99.90;;;;;;5092736;28;20063;-63
2023/12/12 09:23:11;;;;;;;13.35;3.75;;;7.60;99.90;;;;;;5092281;28;20028;-63
2023/12/12 09:25:37;;;;;;;8.73;2.78;;;7.60;99.90;;;;;;5092400;28;20047;-64
2023/12/12 09:28:04;;;;;;;11.32;4.57;;;7.90;99.90;;;;;;5093865;28;20044;-63
2023/12/12 09:30:29;;;;;;;6.18;1.88;;;8.00;99.90;;;;;;5092588;28;20070;-63
2023/12/12 09:32:55;;;;;;;8.07;1.45;;;8.20;99.90;;;;;;5093775;28;20020;-63
2023/12/12 09:35:21;;;;;;;7.32;1.88;;;8.30;99.90;;;;;;5094178;28;20028;-63
2023/12/12 09:37:46;;;;;;;3.13;0.98;;;8.40;99.90;;;;;;5092528;28;20039;-63
2023/12/12 09:40:12;;;;;;;3.15;0.80;;;8.50;99.90;;;;;;5093743;28;20028;-63
2023/12/12 09:42:40;;;;;;;2.33;0.80;;;8.60;99.90;;;;;;5093846;28;20020;-63
2023/12/12 09:45:14;;;;;;;8.05;1.90;;;8.70;99.90;;;;;;5093767;28;20093;-63
2023/12/12 09:47:42;;;;;;;6.13;1.10;;;8.70;99.90;;;;;;5094506;28;20054;-63
2023/12/12 09:50:10;;;;;;;7.63;1.70;;;8.90;99.90;;;;;;5093701;28;20460;-63
2023/12/12 09:52:36;;;;;;;6.15;1.10;;;9.00;99.90;;;;;;5093701;28;20024;-63
2023/12/12 09:55:03;;;;;;;4.22;0.93;;;9.10;99.90;;;;;;5092361;28;20066;-63
2023/12/12 09:57:30;;;;;;;6.32;1.58;;;9.30;99.90;;;;;;5093773;28;20039;-63
2023/12/12 09:59:56;;;;;;;6.18;1.63;;;9.30;99.90;;;;;;5093379;28;20471;-63
2023/12/12 10:02:27;;;;;;;6.53;1.10;;;9.40;99.90;;;;;;5092281;28;20032;-63
2023/12/12 10:04:53;;;;;;;8.18;1.98;;;9.40;99.90;;;;;;5093388;28;20527;-63
2023/12/12 10:07:19;;;;;;;8.30;0.90;;;9.50;99.90;;;;;;5093581;28;20032;-63
2023/12/12 10:09:48;;;;;;;7.65;1.15;;;9.50;99.90;;;;;;5096886;28;20028;-63
2023/12/12 10:12:14;;;;;;;8.50;1.83;;;9.50;99.90;;;;;;5097689;28;20055;-63
2023/12/12 10:14:44;;;;;;;5.38;1.75;;;9.50;99.90;;;;;;5097471;28;20028;-63
2023/12/12 10:17:11;;;;;;;10.40;3.38;;;9.50;99.90;;;;;;5096114;28;20495;-63
2023/12/12 10:19:38;;;;;;;12.68;2.83;;;9.50;99.90;;;;;;5097364;28;20028;-63
2023/12/12 10:22:08;;;;;;;8.20;2.03;;;9.40;99.90;;;;;;5096034;28;20035;-63
2023/12/12 10:24:35;;;;;;;4.53;1.95;;;9.40;99.90;;;;;;5095819;28;20079;-63
2023/12/12 10:27:03;;;;;;;8.95;2.10;;;9.30;99.90;;;;;;5095909;28;20077;-63
2023/12/12 10:29:29;;;;;;;11.30;2.53;;;9.30;99.90;;;;;;5096467;28;20040;-63
2023/12/12 10:31:57;;;;;;;5.13;2.08;;;9.30;99.90;;;;;;5095797;28;20031;-63
2023/12/12 10:34:24;;;;;;;7.13;2.05;;;9.30;99.90;;;;;;5096763;28;20397;-63
2023/12/12 10:36:50;;;;;;;10.68;2.30;;;9.20;99.90;;;;;;5095724;28;20032;-63
2023/12/12 10:39:16;;;;;;;17.75;3.03;;;9.30;99.90;;;;;;5097202;28;20024;-63
2023/12/12 10:41:55;;;;;;;12.60;3.45;;;9.30;99.90;;;;;;5095661;28;20028;-63
2023/12/12 10:44:25;;;;;;;8.18;2.35;;;9.30;99.90;;;;;;5097141;28;20059;-63
2023/12/12 10:46:54;;;;;;;8.55;2.85;;;9.40;99.90;;;;;;5096043;28;20028;-63
2023/12/12 10:49:21;;;;;;;9.73;2.80;;;9.50;99.90;;;;;;5096787;28;20028;-63
2023/12/12 10:51:47;;;;;;;11.93;3.30;;;9.50;99.90;;;;;;5095548;28;20385;-63
2023/12/12 10:54:16;;;;;;;9.10;2.75;;;9.40;99.90;;;;;;5096433;28;20031;-64
2023/12/12 10:56:46;;;;;;;11.07;4.00;;;9.50;99.90;;;;;;5095624;28;20032;-63
2023/12/12 10:59:16;;;;;;;11.00;5.10;;;9.70;99.90;;;;;;5096962;28;20433;-63
2023/12/12 11:01:47;;;;;;;20.25;6.50;;;9.80;99.90;;;;;;5095252;28;20122;-63
2023/12/12 11:04:17;;;;;;;17.50;5.15;;;9.80;99.90;;;;;;5096433;28;20032;-63
2023/12/12 11:06:43;;;;;;;10.50;3.20;;;9.80;99.90;;;;;;5095064;28;20388;-63
2023/12/12 11:09:09;;;;;;;9.40;2.38;;;9.80;99.90;;;;;;5096655;28;20431;-63
2023/12/12 11:11:39;;;;;;;7.05;2.75;;;10.00;99.90;;;;;;5096358;28;20016;-63
2023/12/12 11:14:07;;;;;;;10.95;3.72;;;10.40;99.90;;;;;;5096336;28;20032;-64
2023/12/12 11:16:33;;;;;;;8.80;3.20;;;10.90;99.90;;;;;;5094786;28;20028;-63
2023/12/12 11:19:01;;;;;;;11.20;3.63;;;11.30;99.90;;;;;;5096028;28;20020;-64
2023/12/12 11:21:46;;;;;;;11.67;3.87;;;12.10;99.90;;;;;;5094048;28;20514;-64
2023/12/12 11:24:13;;;;;;;11.55;3.80;;;14.00;99.90;;;;;;5095828;28;20362;-64
2023/12/12 11:26:44;;;;;;;10.30;4.10;;;15.50;99.90;;;;;;5095916;28;20020;-64
2023/12/12 11:29:23;;;;;;;8.00;3.60;;;16.70;96.90;;;;;;5094490;28;20032;-65
2023/12/12 11:32:02;;;;;;;8.45;3.35;;;17.50;94.10;;;;;;5096375;28;20024;-65
2023/12/12 11:34:40;;;;;;;9.93;3.85;;;17.70;92.50;;;;;;5095859;28;20028;-64
2023/12/12 11:37:08;;;;;;;6.13;3.07;;;17.90;91.20;;;;;;5095705;28;20082;-65
2023/12/12 11:39:54;;;;;;;8.75;2.85;;;17.30;91.40;;;;;;5094747;28;20050;-65
2023/12/12 11:42:21;;;;;;;10.63;2.70;;;16.10;91.50;;;;;;5095707;28;20038;-65
2023/12/12 11:44:52;;;;;;;7.50;2.40;;;14.90;93.30;;;;;;5095675;28;20457;-64
2023/12/12 11:47:23;;;;;;;9.70;2.70;;;14.20;94.70;;;;;;5094191;28;20085;-64
2023/12/12 11:49:50;;;;;;;7.05;2.60;;;14.10;96.20;;;;;;5094503;28;20051;-64
2023/12/12 11:52:41;;;;;;;8.50;2.10;;;14.70;95.80;;;;;;5095347;28;20027;-64
2023/12/12 11:55:10;;;;;;;8.68;2.13;;;15.00;95.00;;;;;;5095064;28;20028;-64
2023/12/12 11:57:36;;;;;;;6.13;1.60;;;15.90;93.70;;;;;;5095250;28;20123;-65
2023/12/12 12:00:03;;;;;;;13.75;1.10;;;16.20;92.60;;;;;;5095371;28;20517;-64
2023/12/12 12:02:32;;;;;;;6.05;1.75;;;16.30;92.50;;;;;;5095492;28;20032;-64
2023/12/12 12:04:57;;;;;;;;;;;17.10;91.50;;;;;;5095768;28;20071;-65
2023/12/12 12:07:24;;;;;;;12.32;6.65;;;17.60;90.70;;;;;;5095025;28;19943;-65
2023/12/12 12:09:52;;;;;;;10.45;1.45;;;17.20;90.10;;;;;;5093747;28;20376;-64
2023/12/12 12:12:18;;;;;;;4.78;1.58;;;16.60;91.10;;;;;;5095242;28;20024;-64
2023/12/12 12:14:44;;;;;;;9.05;1.90;;;16.10;91.30;;;;;;5095265;28;20028;-65
2023/12/12 12:17:10;;;;;;;4.38;2.30;;;15.80;92.10;;;;;;5094737;28;20081;-64
2023/12/12 12:19:37;;;;;;;4.88;1.70;;;16.10;91.20;;;;;;5094973;28;20147;-65
2023/12/12 12:22:10;;;;;;;4.90;1.70;;;16.90;91.50;;;;;;5094971;28;20035;-65
2023/12/12 12:24:44;;;;;;;5.13;1.35;;;17.90;90.00;;;;;;5095086;28;20056;-65
2023/12/12 12:27:10;;;;;;;7.45;1.70;;;18.60;86.50;;;;;;5094721;28;20030;-65
2023/12/12 12:29:35;;;;;;;4.50;1.52;;;18.00;84.50;;;;;;5094764;28;20028;-65
2023/12/12 12:32:17;;;;;;;8.70;1.40;;;16.90;87.80;;;;;;5093603;28;20024;-65
2023/12/12 12:34:43;;;;;;;7.82;1.52;;;16.90;90.20;;;;;;5094676;28;20035;-65
2023/12/12 12:37:30;;;;;;;6.25;1.50;;;17.40;88.40;;;;;;5094630;28;20038;-65
2023/12/12 12:39:56;;;;;;;6.13;1.42;;;17.10;88.80;;;;;;5093284;28;20027;-65
2023/12/12 12:42:30;;;;;;;4.03;1.50;;;16.20;90.20;;;;;;5094572;28;20024;-65
2023/12/12 12:44:56;;;;;;;14.90;2.10;;;15.40;91.60;;;;;;5093254;28;20024;-65
2023/12/12 12:47:22;;;;;;;4.45;1.40;;;14.60;92.80;;;;;;5095176;28;20039;-64
2023/12/12 12:49:48;;;;;;;4.78;1.25;;;14.00;94.20;;;;;;5093107;28;20024;-64
2023/12/12 12:52:13;;;;;;;13.30;1.52;;;13.50;95.60;;;;;;5094104;28;20462;-64